sensor_id;sensor_type;location;lat;lon;timestamp;P1;durP1;ratioP1;P2;durP2;ratioP2
20597;SDS011;10457;48.770;11.446;2022-12-18T00:03:20;96.33;;;36.97;;
20597;SDS011;10457;48.770;11.446;2022-12-18T00:08:43;95.70;;;39.27;;
20597;SDS011;10457;48.770;11.446;2022-12-18T00:14:06;87.03;;;36.00;;
20597;SDS011;10457;48.770;11.446;2022-12-18T00:19:27;90.07;;;36.77;;
20597;SDS011;10457;48.770;11.446;2022-12-18T00:24:50;94.43;;;38.77;;
20597;SDS011;10457;48.770;11.446;2022-12-18T00:30:12;96.00;;;39.40;;
20597;SDS011;10457;48.770;11.446;2022-12-18T00:35:34;109.20;;;39.00;;
20597;SDS011;10457;48.770;11.446;2022-12-18T00:40:57;91.77;;;40.37;;
20597;SDS011;10457;48.770;11.446;2022-12-18T00:46:18;85.23;;;35.77;;
20597;SDS011;10457;48.770;11.446;2022-12-18T00:51:41;102.33;;;41.53;;
20597;SDS011;10457;48.770;11.446;2022-12-18T00:57:04;106.80;;;40.57;;
20597;SDS011;10457;48.770;11.446;2022-12-18T01:02:26;105.07;;;42.07;;
20597;SDS011;10457;48.770;11.446;2022-12-18T01:07:47;106.07;;;40.33;;
20597;SDS011;10457;48.770;11.446;2022-12-18T01:13:10;106.57;;;39.40;;
20597;SDS011;10457;48.770;11.446;2022-12-18T01:18:31;99.80;;;36.90;;
20597;SDS011;10457;48.770;11.446;2022-12-18T01:23:53;111.90;;;38.83;;
20597;SDS011;10457;48.770;11.446;2022-12-18T01:29:18;88.40;;;39.63;;
20597;SDS011;10457;48.770;11.446;2022-12-18T01:34:39;100.50;;;37.27;;
20597;SDS011;10457;48.770;11.446;2022-12-18T01:40:01;82.87;;;36.67;;
20597;SDS011;10457;48.770;11.446;2022-12-18T01:45:25;88.83;;;34.93;;
20597;SDS011;10457;48.770;11.446;2022-12-18T01:50:50;87.77;;;34.30;;
20597;SDS011;10457;48.770;11.446;2022-12-18T01:56:12;76.80;;;30.30;;
20597;SDS011;10457;48.770;11.446;2022-12-18T02:01:37;83.93;;;29.93;;
20597;SDS011;10457;48.770;11.446;2022-12-18T02:06:59;73.10;;;31.13;;
20597;SDS011;10457;48.770;11.446;2022-12-18T02:12:40;81.37;;;33.13;;
20597;SDS011;10457;48.770;11.446;2022-12-18T02:18:10;76.43;;;30.60;;
20597;SDS011;10457;48.770;11.446;2022-12-18T02:23:41;81.37;;;31.90;;
20597;SDS011;10457;48.770;11.446;2022-12-18T02:29:15;87.33;;;31.43;;
20597;SDS011;10457;48.770;11.446;2022-12-18T02:34:41;75.93;;;31.73;;
20597;SDS011;10457;48.770;11.446;2022-12-18T02:40:08;81.33;;;31.00;;
20597;SDS011;10457;48.770;11.446;2022-12-18T02:45:33;88.23;;;32.90;;
20597;SDS011;10457;48.770;11.446;2022-12-18T02:50:57;76.70;;;29.53;;
20597;SDS011;10457;48.770;11.446;2022-12-18T02:56:26;81.63;;;30.13;;
20597;SDS011;10457;48.770;11.446;2022-12-18T03:01:55;83.77;;;33.07;;
20597;SDS011;10457;48.770;11.446;2022-12-18T03:07:26;71.50;;;27.93;;
20597;SDS011;10457;48.770;11.446;2022-12-18T03:12:59;74.80;;;28.73;;
20597;SDS011;10457;48.770;11.446;2022-12-18T03:18:28;71.30;;;27.37;;
20597;SDS011;10457;48.770;11.446;2022-12-18T03:23:55;72.10;;;28.37;;
20597;SDS011;10457;48.770;11.446;2022-12-18T03:29:22;78.93;;;29.63;;
20597;SDS011;10457;48.770;11.446;2022-12-18T03:34:53;72.03;;;29.47;;
20597;SDS011;10457;48.770;11.446;2022-12-18T03:40:16;57.60;;;22.63;;
20597;SDS011;10457;48.770;11.446;2022-12-18T03:45:41;74.73;;;29.60;;
20597;SDS011;10457;48.770;11.446;2022-12-18T03:51:10;74.17;;;27.50;;
20597;SDS011;10457;48.770;11.446;2022-12-18T03:56:43;67.60;;;26.63;;
20597;SDS011;10457;48.770;11.446;2022-12-18T04:02:08;73.67;;;26.27;;
20597;SDS011;10457;48.770;11.446;2022-12-18T04:07:32;70.10;;;28.30;;
20597;SDS011;10457;48.770;11.446;2022-12-18T04:12:55;68.30;;;29.60;;
20597;SDS011;10457;48.770;11.446;2022-12-18T04:18:17;68.40;;;28.50;;
20597;SDS011;10457;48.770;11.446;2022-12-18T04:23:41;73.07;;;28.43;;
20597;SDS011;10457;48.770;11.446;2022-12-18T04:29:03;74.70;;;28.90;;
20597;SDS011;10457;48.770;11.446;2022-12-18T04:34:25;74.00;;;27.73;;
20597;SDS011;10457;48.770;11.446;2022-12-18T04:39:49;68.13;;;28.00;;
20597;SDS011;10457;48.770;11.446;2022-12-18T04:45:18;74.40;;;29.17;;
20597;SDS011;10457;48.770;11.446;2022-12-18T04:50:40;69.53;;;27.60;;
20597;SDS011;10457;48.770;11.446;2022-12-18T04:56:04;73.07;;;28.47;;
20597;SDS011;10457;48.770;11.446;2022-12-18T05:01:27;65.20;;;25.57;;
20597;SDS011;10457;48.770;11.446;2022-12-18T05:06:49;64.93;;;27.57;;
20597;SDS011;10457;48.770;11.446;2022-12-18T05:12:11;72.73;;;26.47;;
20597;SDS011;10457;48.770;11.446;2022-12-18T05:17:33;64.63;;;27.63;;
20597;SDS011;10457;48.770;11.446;2022-12-18T05:22:54;68.80;;;27.00;;
20597;SDS011;10457;48.770;11.446;2022-12-18T05:28:18;71.60;;;26.90;;
20597;SDS011;10457;48.770;11.446;2022-12-18T05:33:40;65.03;;;27.27;;
20597;SDS011;10457;48.770;11.446;2022-12-18T05:39:02;68.90;;;28.37;;
20597;SDS011;10457;48.770;11.446;2022-12-18T05:44:25;73.37;;;27.20;;
20597;SDS011;10457;48.770;11.446;2022-12-18T05:49:46;59.63;;;26.40;;
20597;SDS011;10457;48.770;11.446;2022-12-18T05:55:08;65.90;;;29.50;;
20597;SDS011;10457;48.770;11.446;2022-12-18T06:00:31;67.73;;;27.30;;
20597;SDS011;10457;48.770;11.446;2022-12-18T06:05:55;58.73;;;25.10;;
20597;SDS011;10457;48.770;11.446;2022-12-18T06:11:17;56.47;;;24.90;;
20597;SDS011;10457;48.770;11.446;2022-12-18T06:16:42;57.87;;;28.17;;
20597;SDS011;10457;48.770;11.446;2022-12-18T06:22:04;64.63;;;26.27;;
20597;SDS011;10457;48.770;11.446;2022-12-18T06:27:25;65.50;;;27.67;;
20597;SDS011;10457;48.770;11.446;2022-12-18T06:32:48;66.73;;;28.63;;
20597;SDS011;10457;48.770;11.446;2022-12-18T06:38:10;64.03;;;26.90;;
20597;SDS011;10457;48.770;11.446;2022-12-18T06:43:31;70.53;;;29.10;;
20597;SDS011;10457;48.770;11.446;2022-12-18T06:48:54;64.30;;;25.83;;
20597;SDS011;10457;48.770;11.446;2022-12-18T06:54:15;53.57;;;23.30;;
20597;SDS011;10457;48.770;11.446;2022-12-18T06:59:37;63.43;;;26.67;;
20597;SDS011;10457;48.770;11.446;2022-12-18T07:05:00;64.70;;;26.53;;
20597;SDS011;10457;48.770;11.446;2022-12-18T07:10:22;67.70;;;26.30;;
20597;SDS011;10457;48.770;11.446;2022-12-18T07:15:43;66.47;;;27.50;;
20597;SDS011;10457;48.770;11.446;2022-12-18T07:21:07;63.53;;;26.53;;
20597;SDS011;10457;48.770;11.446;2022-12-18T07:26:30;48.17;;;19.37;;
20597;SDS011;10457;48.770;11.446;2022-12-18T07:31:51;61.93;;;22.37;;
20597;SDS011;10457;48.770;11.446;2022-12-18T07:37:14;68.20;;;27.57;;
20597;SDS011;10457;48.770;11.446;2022-12-18T07:42:36;62.43;;;25.47;;
20597;SDS011;10457;48.770;11.446;2022-12-18T07:47:57;59.63;;;25.80;;
20597;SDS011;10457;48.770;11.446;2022-12-18T07:53:20;62.83;;;27.10;;
20597;SDS011;10457;48.770;11.446;2022-12-18T07:58:41;59.83;;;23.07;;
20597;SDS011;10457;48.770;11.446;2022-12-18T08:04:08;58.53;;;25.63;;
20597;SDS011;10457;48.770;11.446;2022-12-18T08:09:31;64.90;;;28.33;;
20597;SDS011;10457;48.770;11.446;2022-12-18T08:14:52;61.57;;;25.50;;
20597;SDS011;10457;48.770;11.446;2022-12-18T08:20:13;55.57;;;25.63;;
20597;SDS011;10457;48.770;11.446;2022-12-18T08:25:39;51.97;;;26.30;;
20597;SDS011;10457;48.770;11.446;2022-12-18T08:31:00;65.50;;;28.53;;
20597;SDS011;10457;48.770;11.446;2022-12-18T08:36:21;61.97;;;27.13;;
20597;SDS011;10457;48.770;11.446;2022-12-18T08:41:45;62.07;;;28.37;;
20597;SDS011;10457;48.770;11.446;2022-12-18T08:47:27;59.70;;;24.07;;
20597;SDS011;10457;48.770;11.446;2022-12-18T08:52:49;56.00;;;26.53;;
20597;SDS011;10457;48.770;11.446;2022-12-18T08:58:12;59.83;;;27.57;;
20597;SDS011;10457;48.770;11.446;2022-12-18T09:03:33;57.80;;;26.60;;
20597;SDS011;10457;48.770;11.446;2022-12-18T09:08:56;58.17;;;25.23;;
20597;SDS011;10457;48.770;11.446;2022-12-18T09:14:19;55.27;;;26.57;;
20597;SDS011;10457;48.770;11.446;2022-12-18T09:19:40;58.23;;;26.47;;
20597;SDS011;10457;48.770;11.446;2022-12-18T09:25:05;57.83;;;25.37;;
20597;SDS011;10457;48.770;11.446;2022-12-18T09:30:29;54.83;;;25.07;;
20597;SDS011;10457;48.770;11.446;2022-12-18T09:35:52;47.57;;;23.13;;
20597;SDS011;10457;48.770;11.446;2022-12-18T09:41:16;51.77;;;24.13;;
20597;SDS011;10457;48.770;11.446;2022-12-18T09:47:09;44.50;;;22.30;;
20597;SDS011;10457;48.770;11.446;2022-12-18T09:52:37;47.33;;;22.77;;
20597;SDS011;10457;48.770;11.446;2022-12-18T09:58:04;53.83;;;24.03;;
20597;SDS011;10457;48.770;11.446;2022-12-18T10:03:36;64.13;;;27.77;;
20597;SDS011;10457;48.770;11.446;2022-12-18T10:08:58;57.73;;;26.17;;
20597;SDS011;10457;48.770;11.446;2022-12-18T10:14:26;56.37;;;26.93;;
20597;SDS011;10457;48.770;11.446;2022-12-18T10:19:57;50.17;;;23.07;;
20597;SDS011;10457;48.770;11.446;2022-12-18T10:25:24;56.67;;;24.77;;
20597;SDS011;10457;48.770;11.446;2022-12-18T10:30:51;59.10;;;24.13;;
20597;SDS011;10457;48.770;11.446;2022-12-18T10:36:14;45.53;;;20.60;;
20597;SDS011;10457;48.770;11.446;2022-12-18T10:41:36;48.77;;;23.63;;
20597;SDS011;10457;48.770;11.446;2022-12-18T10:47:02;55.30;;;23.27;;
20597;SDS011;10457;48.770;11.446;2022-12-18T10:52:27;53.43;;;25.23;;
20597;SDS011;10457;48.770;11.446;2022-12-18T10:57:49;55.87;;;24.10;;
20597;SDS011;10457;48.770;11.446;2022-12-18T11:03:29;53.17;;;26.33;;
20597;SDS011;10457;48.770;11.446;2022-12-18T11:09:00;56.53;;;25.13;;
20597;SDS011;10457;48.770;11.446;2022-12-18T11:14:24;56.27;;;27.73;;
20597;SDS011;10457;48.770;11.446;2022-12-18T11:19:51;55.30;;;25.67;;
20597;SDS011;10457;48.770;11.446;2022-12-18T11:25:18;96.47;;;40.50;;
20597;SDS011;10457;48.770;11.446;2022-12-18T11:30:40;53.07;;;27.67;;
20597;SDS011;10457;48.770;11.446;2022-12-18T11:36:02;69.23;;;30.13;;
20597;SDS011;10457;48.770;11.446;2022-12-18T11:41:27;53.37;;;26.67;;
20597;SDS011;10457;48.770;11.446;2022-12-18T11:47:14;49.70;;;25.13;;
20597;SDS011;10457;48.770;11.446;2022-12-18T11:52:46;55.97;;;27.97;;
20597;SDS011;10457;48.770;11.446;2022-12-18T11:58:12;53.80;;;23.93;;
20597;SDS011;10457;48.770;11.446;2022-12-18T12:03:47;51.70;;;23.97;;
20597;SDS011;10457;48.770;11.446;2022-12-18T12:09:59;54.33;;;24.10;;
20597;SDS011;10457;48.770;11.446;2022-12-18T12:15:34;53.67;;;24.87;;
20597;SDS011;10457;48.770;11.446;2022-12-18T12:21:09;52.30;;;24.43;;
20597;SDS011;10457;48.770;11.446;2022-12-18T12:26:42;49.57;;;24.87;;
20597;SDS011;10457;48.770;11.446;2022-12-18T12:32:17;43.03;;;21.87;;
20597;SDS011;10457;48.770;11.446;2022-12-18T12:37:55;54.30;;;25.10;;
20597;SDS011;10457;48.770;11.446;2022-12-18T12:43:31;50.03;;;23.57;;
20597;SDS011;10457;48.770;11.446;2022-12-18T12:48:58;52.70;;;23.87;;
20597;SDS011;10457;48.770;11.446;2022-12-18T12:54:23;48.77;;;23.97;;
20597;SDS011;10457;48.770;11.446;2022-12-18T12:59:51;51.93;;;23.93;;
20597;SDS011;10457;48.770;11.446;2022-12-18T13:05:19;59.27;;;25.80;;
20597;SDS011;10457;48.770;11.446;2022-12-18T13:10:48;48.70;;;23.37;;
20597;SDS011;10457;48.770;11.446;2022-12-18T13:16:31;47.90;;;22.93;;
20597;SDS011;10457;48.770;11.446;2022-12-18T13:21:53;39.77;;;22.70;;
20597;SDS011;10457;48.770;11.446;2022-12-18T13:33:39;49.63;;;23.40;;
20597;SDS011;10457;48.770;11.446;2022-12-18T13:39:10;45.17;;;22.43;;
20597;SDS011;10457;48.770;11.446;2022-12-18T13:44:44;47.20;;;23.87;;
20597;SDS011;10457;48.770;11.446;2022-12-18T13:50:11;44.03;;;23.13;;
20597;SDS011;10457;48.770;11.446;2022-12-18T13:55:46;54.70;;;24.97;;
20597;SDS011;10457;48.770;11.446;2022-12-18T14:01:15;52.30;;;24.80;;
20597;SDS011;10457;48.770;11.446;2022-12-18T14:06:47;45.90;;;23.00;;
20597;SDS011;10457;48.770;11.446;2022-12-18T14:12:14;43.33;;;23.23;;
20597;SDS011;10457;48.770;11.446;2022-12-18T14:17:57;50.07;;;22.93;;
20597;SDS011;10457;48.770;11.446;2022-12-18T14:23:29;54.10;;;24.03;;
20597;SDS011;10457;48.770;11.446;2022-12-18T14:28:54;47.23;;;24.20;;
20597;SDS011;10457;48.770;11.446;2022-12-18T14:34:16;44.90;;;23.10;;
20597;SDS011;10457;48.770;11.446;2022-12-18T14:39:40;50.80;;;22.97;;
20597;SDS011;10457;48.770;11.446;2022-12-18T14:51:15;50.10;;;24.47;;
20597;SDS011;10457;48.770;11.446;2022-12-18T14:56:44;64.23;;;28.27;;
20597;SDS011;10457;48.770;11.446;2022-12-18T15:02:10;61.13;;;24.93;;
20597;SDS011;10457;48.770;11.446;2022-12-18T15:07:39;47.93;;;23.50;;
20597;SDS011;10457;48.770;11.446;2022-12-18T15:13:08;66.43;;;25.30;;
20597;SDS011;10457;48.770;11.446;2022-12-18T15:18:41;77.60;;;27.23;;
20597;SDS011;10457;48.770;11.446;2022-12-18T15:24:13;59.13;;;24.47;;
20597;SDS011;10457;48.770;11.446;2022-12-18T15:29:40;52.30;;;21.67;;
20597;SDS011;10457;48.770;11.446;2022-12-18T15:35:02;51.70;;;24.03;;
20597;SDS011;10457;48.770;11.446;2022-12-18T15:40:34;41.47;;;20.37;;
20597;SDS011;10457;48.770;11.446;2022-12-18T15:45:56;41.33;;;20.43;;
20597;SDS011;10457;48.770;11.446;2022-12-18T15:51:19;45.03;;;21.67;;
20597;SDS011;10457;48.770;11.446;2022-12-18T15:56:44;46.07;;;21.73;;
20597;SDS011;10457;48.770;11.446;2022-12-18T16:02:24;42.37;;;21.50;;
20597;SDS011;10457;48.770;11.446;2022-12-18T16:07:47;49.73;;;21.63;;
20597;SDS011;10457;48.770;11.446;2022-12-18T16:13:09;57.80;;;24.07;;
20597;SDS011;10457;48.770;11.446;2022-12-18T16:18:32;48.30;;;23.60;;
20597;SDS011;10457;48.770;11.446;2022-12-18T16:23:54;51.17;;;24.03;;
20597;SDS011;10457;48.770;11.446;2022-12-18T16:29:15;43.07;;;21.57;;
20597;SDS011;10457;48.770;11.446;2022-12-18T16:34:38;47.83;;;22.97;;
20597;SDS011;10457;48.770;11.446;2022-12-18T16:40:01;51.23;;;23.70;;
20597;SDS011;10457;48.770;11.446;2022-12-18T16:45:23;51.83;;;25.07;;
20597;SDS011;10457;48.770;11.446;2022-12-18T16:50:55;67.17;;;26.93;;
20597;SDS011;10457;48.770;11.446;2022-12-18T16:56:23;56.93;;;25.50;;
20597;SDS011;10457;48.770;11.446;2022-12-18T17:01:44;58.93;;;26.53;;
20597;SDS011;10457;48.770;11.446;2022-12-18T17:07:08;51.43;;;25.00;;
20597;SDS011;10457;48.770;11.446;2022-12-18T17:12:30;49.60;;;24.77;;
20597;SDS011;10457;48.770;11.446;2022-12-18T17:17:51;57.50;;;26.03;;
20597;SDS011;10457;48.770;11.446;2022-12-18T17:23:14;43.90;;;22.30;;
20597;SDS011;10457;48.770;11.446;2022-12-18T17:28:36;50.83;;;23.47;;
20597;SDS011;10457;48.770;11.446;2022-12-18T17:34:00;57.87;;;25.97;;
20597;SDS011;10457;48.770;11.446;2022-12-18T17:39:24;52.13;;;24.63;;
20597;SDS011;10457;48.770;11.446;2022-12-18T17:44:47;51.80;;;26.37;;
20597;SDS011;10457;48.770;11.446;2022-12-18T17:50:08;61.50;;;25.17;;
20597;SDS011;10457;48.770;11.446;2022-12-18T17:55:31;45.33;;;25.63;;
20597;SDS011;10457;48.770;11.446;2022-12-18T18:00:53;54.50;;;26.13;;
20597;SDS011;10457;48.770;11.446;2022-12-18T18:06:22;52.93;;;25.37;;
20597;SDS011;10457;48.770;11.446;2022-12-18T18:11:45;60.20;;;24.03;;
20597;SDS011;10457;48.770;11.446;2022-12-18T18:17:25;53.10;;;24.63;;
20597;SDS011;10457;48.770;11.446;2022-12-18T18:22:46;53.13;;;25.43;;
20597;SDS011;10457;48.770;11.446;2022-12-18T18:28:09;61.07;;;25.37;;
20597;SDS011;10457;48.770;11.446;2022-12-18T18:33:31;58.33;;;25.90;;
20597;SDS011;10457;48.770;11.446;2022-12-18T18:38:53;59.60;;;27.57;;
20597;SDS011;10457;48.770;11.446;2022-12-18T18:44:16;58.00;;;27.87;;
20597;SDS011;10457;48.770;11.446;2022-12-18T18:49:39;55.03;;;27.70;;
20597;SDS011;10457;48.770;11.446;2022-12-18T18:55:00;60.57;;;28.90;;
20597;SDS011;10457;48.770;11.446;2022-12-18T19:00:23;61.93;;;26.47;;
20597;SDS011;10457;48.770;11.446;2022-12-18T19:05:48;60.10;;;28.37;;
20597;SDS011;10457;48.770;11.446;2022-12-18T19:11:12;66.87;;;31.87;;
20597;SDS011;10457;48.770;11.446;2022-12-18T19:16:52;58.37;;;26.73;;
20597;SDS011;10457;48.770;11.446;2022-12-18T19:22:14;44.83;;;23.03;;
20597;SDS011;10457;48.770;11.446;2022-12-18T19:27:35;61.53;;;26.97;;
20597;SDS011;10457;48.770;11.446;2022-12-18T19:32:59;51.30;;;23.23;;
20597;SDS011;10457;48.770;11.446;2022-12-18T19:38:21;61.40;;;28.07;;
20597;SDS011;10457;48.770;11.446;2022-12-18T19:43:43;53.57;;;26.13;;
20597;SDS011;10457;48.770;11.446;2022-12-18T19:49:06;56.23;;;26.27;;
20597;SDS011;10457;48.770;11.446;2022-12-18T19:54:29;47.23;;;23.03;;
20597;SDS011;10457;48.770;11.446;2022-12-18T19:59:50;53.93;;;25.00;;
20597;SDS011;10457;48.770;11.446;2022-12-18T20:05:13;64.33;;;24.80;;
20597;SDS011;10457;48.770;11.446;2022-12-18T20:10:35;50.43;;;24.20;;
20597;SDS011;10457;48.770;11.446;2022-12-18T20:15:57;49.90;;;25.73;;
20597;SDS011;10457;48.770;11.446;2022-12-18T20:21:20;54.33;;;25.33;;
20597;SDS011;10457;48.770;11.446;2022-12-18T20:26:41;58.67;;;26.53;;
20597;SDS011;10457;48.770;11.446;2022-12-18T20:32:04;62.30;;;27.07;;
20597;SDS011;10457;48.770;11.446;2022-12-18T20:37:27;59.50;;;26.90;;
20597;SDS011;10457;48.770;11.446;2022-12-18T20:42:48;35.23;;;17.50;;
20597;SDS011;10457;48.770;11.446;2022-12-18T20:48:09;59.77;;;28.03;;
20597;SDS011;10457;48.770;11.446;2022-12-18T20:53:33;64.97;;;30.93;;
20597;SDS011;10457;48.770;11.446;2022-12-18T20:58:55;63.03;;;29.43;;
20597;SDS011;10457;48.770;11.446;2022-12-18T21:04:17;67.07;;;28.33;;
20597;SDS011;10457;48.770;11.446;2022-12-18T21:09:41;75.47;;;34.07;;
20597;SDS011;10457;48.770;11.446;2022-12-18T21:15:03;75.83;;;39.77;;
20597;SDS011;10457;48.770;11.446;2022-12-18T21:20:27;74.60;;;34.57;;
20597;SDS011;10457;48.770;11.446;2022-12-18T21:25:50;63.27;;;31.97;;
20597;SDS011;10457;48.770;11.446;2022-12-18T21:31:11;65.10;;;32.27;;
20597;SDS011;10457;48.770;11.446;2022-12-18T21:36:33;62.63;;;31.80;;
20597;SDS011;10457;48.770;11.446;2022-12-18T21:41:56;69.07;;;29.33;;
20597;SDS011;10457;48.770;11.446;2022-12-18T21:47:36;75.50;;;31.27;;
20597;SDS011;10457;48.770;11.446;2022-12-18T21:52:57;74.00;;;32.90;;
20597;SDS011;10457;48.770;11.446;2022-12-18T21:58:20;67.10;;;30.57;;
20597;SDS011;10457;48.770;11.446;2022-12-18T22:03:42;63.43;;;30.33;;
20597;SDS011;10457;48.770;11.446;2022-12-18T22:09:04;81.17;;;33.47;;
20597;SDS011;10457;48.770;11.446;2022-12-18T22:14:27;67.40;;;31.00;;
20597;SDS011;10457;48.770;11.446;2022-12-18T22:19:48;69.03;;;31.37;;
20597;SDS011;10457;48.770;11.446;2022-12-18T22:25:10;79.00;;;34.97;;
20597;SDS011;10457;48.770;11.446;2022-12-18T22:30:33;72.53;;;32.17;;
20597;SDS011;10457;48.770;11.446;2022-12-18T22:35:57;76.10;;;32.83;;
20597;SDS011;10457;48.770;11.446;2022-12-18T22:41:45;75.97;;;36.60;;
20597;SDS011;10457;48.770;11.446;2022-12-18T22:47:18;76.77;;;35.10;;
20597;SDS011;10457;48.770;11.446;2022-12-18T22:52:39;99.00;;;35.93;;
20597;SDS011;10457;48.770;11.446;2022-12-18T22:58:01;80.43;;;34.83;;
20597;SDS011;10457;48.770;11.446;2022-12-18T23:03:24;72.13;;;32.73;;
20597;SDS011;10457;48.770;11.446;2022-12-18T23:08:45;82.70;;;37.07;;
20597;SDS011;10457;48.770;11.446;2022-12-18T23:14:08;72.33;;;32.70;;
20597;SDS011;10457;48.770;11.446;2022-12-18T23:19:31;74.17;;;35.63;;
20597;SDS011;10457;48.770;11.446;2022-12-18T23:24:55;89.47;;;35.60;;
20597;SDS011;10457;48.770;11.446;2022-12-18T23:30:16;73.73;;;33.50;;
20597;SDS011;10457;48.770;11.446;2022-12-18T23:35:39;65.93;;;32.03;;
20597;SDS011;10457;48.770;11.446;2022-12-18T23:41:04;68.93;;;32.20;;
20597;SDS011;10457;48.770;11.446;2022-12-18T23:46:28;67.17;;;30.33;;
20597;SDS011;10457;48.770;11.446;2022-12-18T23:51:53;75.83;;;33.30;;
20597;SDS011;10457;48.770;11.446;2022-12-18T23:57:15;82.57;;;39.17;;
